Etters, Pennsylvania
Current Conditions -  °F | °C
As of 3:56 AM on Sunday 26 Oct 2014 (Local Time) from KMDT Reporting Station
Few Clouds Few Clouds  
Wind Chill: 59°   Ceiling: Unl
Heat Index: 59°   Visibility: 10mi
Dew Point: 36°   Wind: 18mph
Humidity: 42%   Direction: 310°NW
Pressure: 29.65"   Gusts: NA
Location:  40.15°N, 76.79°W
Report Text: KMDT 260756Z 31016KT 10SM FEW080 15/02 A2965 RMK AO2 PK WND 33028/0730 SLP040 T01500022 $
Loading
Personal Weather Stations






























Interactive Weather Map New forecast layout! Learn more

10-Day Weather Forecast

Advertisements
Track Severe Weather on mobile